Time;durP1;ratioP1;P1;durP2;ratioP2;P2;SDS_P1;SDS_P2;PMS_P1;PMS_P2;Temp;Humidity;BMP_temperature;BMP_pressure;BME280_temperature;BME280_humidity;BME280_pressure;Samples;Min_cycle;Max_cycle;Signal;HPM_P1;HPM_P2
2023/04/05 00:02:23;;;;;;;14.98;2.42;;;;;;;8.08;61.13;99961.75;10290367;28;20054;-78
2023/04/05 00:07:25;;;;;;;14.65;2.70;;;;;;;8.23;62.19;99991.91;10290903;28;20121;-78
2023/04/05 00:12:26;;;;;;;11.23;2.83;;;;;;;7.60;62.17;99887.41;10290788;28;20046;-78
2023/04/05 00:17:28;;;;;;;7.65;2.53;;;;;;;7.64;62.43;99909.88;10289999;28;20039;-78
2023/04/05 00:22:30;;;;;;;10.57;2.10;;;;;;;8.00;62.31;99981.06;10290639;28;20047;-78
2023/04/05 00:27:31;;;;;;;7.05;2.22;;;;;;;8.08;62.44;99983.75;10290805;28;20038;-77
2023/04/05 00:32:32;;;;;;;11.35;2.13;;;;;;;7.70;62.46;99933.03;10289950;28;20042;-78
2023/04/05 00:37:33;;;;;;;11.60;2.95;;;;;;;7.97;62.79;99973.47;10297560;28;20483;-77
2023/04/05 00:42:34;;;;;;;13.70;3.10;;;;;;;7.77;63.14;99949.91;10297424;28;20467;-78
2023/04/05 00:47:35;;;;;;;16.08;2.80;;;;;;;7.89;63.30;99991.94;10296473;28;20126;-78
2023/04/05 00:52:42;;;;;;;15.07;2.80;;;;;;;7.70;63.22;99958.66;10296311;28;20078;-77
2023/04/05 00:57:44;;;;;;;17.65;3.33;;;;;;;7.68;63.39;99950.84;10297109;28;20093;-77
2023/04/05 01:02:50;;;;;;;20.58;2.58;;;;;;;7.60;63.60;99942.91;10296707;28;20054;-78
2023/04/05 01:08:09;;;;;;;10.93;2.67;;;;;;;7.88;64.07;99972.59;10296539;28;20047;-77
2023/04/05 01:13:10;;;;;;;12.70;2.92;;;;;;;7.58;63.51;99913.16;10310762;28;20046;-78
2023/04/05 01:18:12;;;;;;;11.45;3.00;;;;;;;7.88;64.64;99993.75;10296495;28;20553;-78
2023/04/05 01:23:25;;;;;;;15.80;3.08;;;;;;;7.82;65.72;99978.53;10295655;28;20045;-78
2023/04/05 01:29:03;;;;;;;15.63;2.90;;;;;;;7.72;66.52;99983.94;10294822;28;20089;-78
2023/04/05 01:34:35;;;;;;;13.45;3.40;;;;;;;7.63;67.43;99974.31;10294613;28;20407;-78
2023/04/05 01:39:37;;;;;;;12.43;3.17;;;;;;;7.48;65.66;99971.44;10295453;28;20043;-78
2023/04/05 01:44:38;;;;;;;12.00;2.75;;;;;;;7.39;66.20;99966.22;10294241;28;20038;-78
2023/04/05 01:49:38;;;;;;;14.20;2.47;;;;;;;7.35;66.39;99952.50;10294868;28;20046;-78
2023/04/05 01:54:39;;;;;;;16.50;2.45;;;;;;;6.86;66.50;99892.31;10293503;28;20092;-76
2023/04/05 01:59:40;;;;;;;11.27;3.35;;;;;;;6.55;67.73;99883.16;10294658;28;20058;-78
2023/04/05 02:04:41;;;;;;;16.08;2.92;;;;;;;6.32;67.64;99862.53;10294565;28;20411;-78
2023/04/05 02:09:42;;;;;;;8.68;2.28;;;;;;;6.57;68.54;99910.22;10294381;28;20074;-78
2023/04/05 02:14:42;;;;;;;28.20;4.07;;;;;;;6.75;68.57;99944.53;10337048;28;20044;-78
2023/04/05 02:19:45;;;;;;;15.32;3.53;;;;;;;6.57;69.21;99904.94;10343848;28;20069;-78
2023/04/05 02:24:46;;;;;;;13.90;3.10;;;;;;;6.67;69.14;99940.03;10333835;28;20119;-78
2023/04/05 02:29:47;;;;;;;26.05;3.67;;;;;;;6.33;70.15;99892.38;10332881;28;20046;-78
2023/04/05 02:34:49;;;;;;;13.55;3.45;;;;;;;6.29;70.20;99909.50;10332835;28;20418;-78
2023/04/05 02:39:49;;;;;;;14.02;3.05;;;;;;;6.34;70.94;99901.94;10333847;28;20133;-79
2023/04/05 02:44:51;;;;;;;17.02;3.15;;;;;;;5.91;70.81;99851.59;10356371;28;20520;-79
2023/04/05 02:49:52;;;;;;;10.52;2.72;;;;;;;6.28;70.90;99923.66;10333622;28;20045;-77
2023/04/05 02:54:53;;;;;;;16.95;3.30;;;;;;;6.40;71.58;99931.22;10345980;28;20053;-78
2023/04/05 02:59:53;;;;;;;14.52;2.95;;;;;;;6.58;71.06;99925.06;10365074;28;20132;-79
2023/04/05 03:04:54;;;;;;;17.08;3.50;;;;;;;6.61;70.46;99919.50;10365838;28;20045;-78
2023/04/05 03:09:56;;;;;;;11.90;2.55;;;;;;;6.69;70.45;99930.13;10365442;28;20048;-78
2023/04/05 03:14:57;;;;;;;12.05;2.95;;;;;;;6.89;70.04;99933.41;10365015;28;20073;-78
2023/04/05 03:19:59;;;;;;;16.42;2.85;;;;;;;7.00;70.10;99929.66;10366226;28;20112;-83
2023/04/05 03:25:00;;;;;;;9.20;2.55;;;;;;;6.16;69.72;99809.63;10332402;28;20057;-77
2023/04/05 03:30:01;;;;;;;13.00;3.20;;;;;;;5.91;70.71;99775.13;10340997;28;20047;-76
2023/04/05 03:35:01;;;;;;;6.97;2.60;;;;;;;7.07;70.64;99891.09;10291366;28;20046;-76
2023/04/05 03:40:05;;;;;;;9.65;3.08;;;;;;;7.73;69.81;99937.16;10316616;28;20379;-80
2023/04/05 03:45:06;;;;;;;6.45;2.72;;;;;;;8.23;69.28;99942.44;10330485;28;20042;-77
2023/04/05 03:50:07;;;;;;;10.57;2.50;;;;;;;8.66;68.50;99939.69;10331134;28;20058;-76
2023/04/05 03:55:08;;;;;;;6.85;2.22;;;;;;;8.89;68.67;99951.28;10351146;28;20042;-83
2023/04/05 04:00:13;;;;;;;5.53;1.88;;;;;;;8.78;68.07;99953.44;10372079;28;20068;-80
2023/04/05 04:05:16;;;;;;;3.80;2.42;;;;;;;7.18;70.24;99872.34;10371683;28;20104;-89
2023/04/05 04:10:16;;;;;;;5.65;2.35;;;;;;;6.48;71.75;99856.56;10348271;28;20042;-80
2023/04/05 04:15:17;;;;;;;8.85;2.60;;;;;;;6.83;71.99;99931.38;10353240;28;20497;-88
2023/04/05 04:20:18;;;;;;;4.20;2.47;;;;;;;6.55;72.66;99934.16;10361284;28;20033;-72
2023/04/05 04:25:19;;;;;;;8.07;3.58;;;;;;;5.86;74.19;99882.00;10345162;28;20042;-77
2023/04/05 04:30:21;;;;;;;6.32;3.00;;;;;;;6.51;74.44;99905.56;10338171;28;20042;-76
2023/04/05 04:35:27;;;;;;;7.28;3.13;;;;;;;6.23;75.22;99895.09;10337096;28;20046;-79
2023/04/05 04:40:38;;;;;;;6.88;3.97;;;;;;;6.37;75.62;99920.09;10343582;28;20565;-76
2023/04/05 04:45:40;;;;;;;7.88;3.97;;;;;;;5.64;76.05;99814.75;10352497;28;20414;-75
2023/04/05 04:50:44;;;;;;;11.43;4.75;;;;;;;6.11;78.14;99883.13;10348792;28;20049;-77
2023/04/05 04:55:49;;;;;;;7.20;4.43;;;;;;;6.06;77.96;99883.56;10377287;28;20464;-78
2023/04/05 05:00:51;;;;;;;7.25;4.38;;;;;;;6.16;78.88;99867.66;10357836;28;20399;-78
2023/04/05 05:05:52;;;;;;;10.95;4.45;;;;;;;6.44;78.92;99875.50;10336471;28;20046;-78
2023/04/05 05:10:53;;;;;;;8.02;4.45;;;;;;;6.18;78.76;99774.22;10336458;28;20042;-79
2023/04/05 05:15:55;;;;;;;20.10;8.38;;;;;;;6.71;78.79;99837.59;10336364;28;20049;-78
2023/04/05 05:20:55;;;;;;;16.40;8.00;;;;;;;6.25;78.98;99774.47;10334926;28;20038;-78
2023/04/05 05:25:58;;;;;;;13.80;7.32;;;;;;;6.83;79.65;99878.59;10335821;28;20480;-78
2023/04/05 05:30:59;;;;;;;12.52;6.43;;;;;;;6.97;79.77;99880.66;10336732;28;20368;-79
2023/04/05 05:36:00;;;;;;;18.17;8.00;;;;;;;7.25;79.90;99869.91;10335027;28;20045;-79
2023/04/05 05:41:01;;;;;;;10.52;5.90;;;;;;;7.44;79.39;99859.06;10335387;28;20050;-79
2023/04/05 05:46:01;;;;;;;11.70;5.20;;;;;;;7.65;78.84;99856.00;10334498;28;20405;-79
2023/04/05 05:51:08;;;;;;;11.50;5.40;;;;;;;7.82;78.79;99869.28;10335450;28;20048;-79
2023/04/05 05:56:10;;;;;;;19.40;8.40;;;;;;;8.08;78.66;99872.66;10334166;28;20058;-79
2023/04/05 06:01:10;;;;;;;24.73;10.35;;;;;;;7.34;78.08;99704.31;10334565;28;20053;-79
2023/04/05 06:06:11;;;;;;;24.25;10.27;;;;;;;8.35;77.99;99837.09;10334382;28;20046;-79
2023/04/05 06:11:17;;;;;;;10.48;6.07;;;;;;;8.25;78.67;99786.13;10334119;28;20050;-80
2023/04/05 06:16:18;;;;;;;17.13;7.03;;;;;;;8.97;77.53;99863.00;10334679;28;20042;-79
2023/04/05 06:21:18;;;;;;;23.10;7.35;;;;;;;9.29;76.78;99851.50;10333835;28;20564;-79
2023/04/05 06:26:23;;;;;;;14.07;6.53;;;;;;;9.53;76.15;99841.78;10333646;28;20497;-79
2023/04/05 06:31:30;;;;;;;23.33;8.85;;;;;;;9.53;75.98;99847.09;10332821;28;20046;-79
2023/04/05 06:36:32;;;;;;;18.05;6.03;;;;;;;9.74;75.37;99865.03;10333393;28;20384;-80
2023/04/05 06:41:33;;;;;;;12.02;6.28;;;;;;;10.03;74.56;99862.53;10333513;28;20045;-79
2023/04/05 06:46:34;;;;;;;21.67;7.53;;;;;;;10.24;73.75;99864.53;10332811;28;20034;-80
2023/04/05 06:51:35;;;;;;;9.85;5.50;;;;;;;10.34;72.71;99847.59;10332030;28;20053;-78
2023/04/05 06:56:36;;;;;;;12.60;5.95;;;;;;;10.32;72.67;99826.53;10332259;28;20058;-81
2023/04/05 07:01:36;;;;;;;15.00;5.82;;;;;;;11.17;71.46;99857.22;10332013;28;20052;-78
2023/04/05 07:06:38;;;;;;;12.45;5.20;;;;;;;10.80;70.53;99792.53;10332190;28;20100;-80
2023/04/05 07:11:40;;;;;;;16.80;6.13;;;;;;;11.16;70.13;99851.09;10331373;28;20050;-81
2023/04/05 07:16:41;;;;;;;14.00;6.22;;;;;;;11.09;68.67;99762.44;10332517;28;20042;-79
2023/04/05 07:21:41;;;;;;;20.27;8.98;;;;;;;12.41;66.90;99827.91;10347299;28;20058;-77
2023/04/05 07:26:43;;;;;;;24.00;8.30;;;;;;;12.25;65.54;99765.91;10331791;28;20045;-78
2023/04/05 07:31:43;;;;;;;15.18;5.43;;;;;;;12.14;66.74;99821.53;10331599;28;20053;-78
2023/04/05 07:36:45;;;;;;;13.80;5.35;;;;;;;12.19;66.57;99819.94;10331276;28;20042;-78
2023/04/05 07:41:46;;;;;;;13.70;6.53;;;;;;;12.49;65.42;99787.81;10331362;28;20133;-79
2023/04/05 07:46:47;;;;;;;10.90;5.38;;;;;;;12.61;64.67;99780.09;10339729;28;20129;-78
2023/04/05 07:51:48;;;;;;;25.25;10.05;;;;;;;13.09;62.32;99751.66;10340103;28;20042;-78
2023/04/05 07:56:50;;;;;;;14.95;6.50;;;;;;;13.62;61.71;99789.22;10338745;28;20062;-78
2023/04/05 08:01:50;;;;;;;21.35;5.57;;;;;;;13.46;61.05;99705.03;10334612;28;20039;-79
2023/04/05 08:06:51;;;;;;;15.07;4.97;;;;;;;13.16;60.25;99637.00;10298390;28;20042;-77
2023/04/05 08:11:52;;;;;;;20.52;5.80;;;;;;;14.25;59.37;99751.50;10297871;28;20522;-77
2023/04/05 08:16:53;;;;;;;14.68;5.85;;;;;;;14.30;57.86;99703.63;10298501;28;20578;-77
2023/04/05 08:21:54;;;;;;;17.45;5.75;;;;;;;14.81;56.68;99744.88;10298344;28;20042;-77
2023/04/05 08:26:55;;;;;;;13.93;4.43;;;;;;;14.78;57.02;99723.91;10298209;28;20054;-77
2023/04/05 08:31:57;;;;;;;12.25;4.40;;;;;;;15.27;56.44;99733.97;10297713;28;20071;-77
2023/04/05 08:36:58;;;;;;;13.20;4.97;;;;;;;15.30;55.25;99668.50;10297103;28;20039;-77
2023/04/05 08:42:07;;;;;;;18.95;4.57;;;;;;;15.52;52.90;99703.75;10296934;28;20123;-77
2023/04/05 08:47:14;;;;;;;10.73;4.13;;;;;;;15.64;53.74;99703.91;10296816;28;20039;-77
2023/04/05 08:52:15;;;;;;;13.43;4.65;;;;;;;15.85;52.83;99700.06;10296552;28;20484;-77
2023/04/05 08:57:17;;;;;;;18.65;7.35;;;;;;;16.05;51.80;99681.97;10296029;28;20062;-76
2023/04/05 09:02:23;;;;;;;18.58;6.22;;;;;;;15.90;51.52;99678.81;10296129;28;20049;-77
2023/04/05 09:07:27;;;;;;;17.40;5.00;;;;;;;15.67;50.93;99679.38;10296598;28;20096;-72
2023/04/05 09:12:29;;;;;;;11.43;3.95;;;;;;;15.68;51.40;99681.06;10296341;28;20050;-73
2023/04/05 09:17:31;;;;;;;15.45;3.80;;;;;;;16.22;50.24;99628.66;10296166;28;20047;-73
2023/04/05 09:22:42;;;;;;;12.05;3.70;;;;;;;17.19;47.69;99652.84;10295690;28;20530;-72
2023/04/05 09:27:57;;;;;;;12.63;4.20;;;;;;;16.67;45.87;99583.56;10305415;28;20085;-73
2023/04/05 09:32:58;;;;;;;8.73;3.20;;;;;;;17.03;46.50;99562.25;10350128;28;20042;-72
2023/04/05 09:38:00;;;;;;;11.63;3.40;;;;;;;17.99;43.84;99648.94;10374828;28;20057;-72
2023/04/05 09:43:01;;;;;;;12.00;3.00;;;;;;;17.58;42.75;99545.88;10366517;28;20073;-72
2023/04/05 09:48:02;;;;;;;15.68;4.15;;;;;;;18.21;40.36;99588.16;10374312;28;20084;-75
2023/04/05 09:53:15;;;;;;;13.77;3.67;;;;;;;18.87;39.63;99630.94;10376502;28;20042;-74
2023/04/05 09:58:20;;;;;;;12.10;2.75;;;;;;;19.03;36.05;99615.91;10337462;28;20574;-72
2023/04/05 10:03:24;;;;;;;14.07;2.63;;;;;;;19.01;36.14;99591.91;10333893;28;20133;-73
2023/04/05 10:08:25;;;;;;;16.13;2.50;;;;;;;19.03;35.89;99595.19;10333448;28;20073;-73
2023/04/05 10:13:26;;;;;;;8.15;1.50;;;;;;;19.20;35.86;99600.56;10333555;28;20045;-73
2023/04/05 10:18:38;;;;;;;9.15;1.85;;;;;;;18.85;35.93;99571.16;10342149;28;20053;-72
2023/04/05 10:23:43;;;;;;;13.55;1.83;;;;;;;19.10;36.34;99589.63;10364925;28;20502;-74
2023/04/05 10:28:49;;;;;;;10.40;2.10;;;;;;;19.33;35.57;99607.56;10367067;28;20081;-72
2023/04/05 10:34:03;;;;;;;12.35;2.60;;;;;;;19.30;34.64;99581.09;10373337;28;20034;-73
2023/04/05 10:39:09;;;;;;;11.45;2.40;;;;;;;19.53;34.25;99597.13;10346123;28;20042;-72
2023/04/05 10:44:10;;;;;;;7.07;2.20;;;;;;;19.21;34.55;99548.38;10333083;28;20057;-73
2023/04/05 10:49:24;;;;;;;7.28;1.92;;;;;;;19.04;33.44;99542.97;10331988;28;20046;-73
2023/04/05 10:54:26;;;;;;;8.38;2.35;;;;;;;19.46;33.52;99585.66;10331835;28;20042;-72
2023/04/05 10:59:28;;;;;;;6.88;3.20;;;;;;;19.56;33.09;99542.75;10332777;28;20055;-72
2023/04/05 11:04:32;;;;;;;9.95;2.72;;;;;;;19.45;32.16;99515.91;10330481;28;20038;-72
2023/04/05 11:09:34;;;;;;;18.58;2.20;;;;;;;19.87;32.32;99588.22;10347215;28;20050;-72
2023/04/05 11:14:36;;;;;;;11.45;1.85;;;;;;;19.98;32.19;99598.91;10331349;28;20665;-72
2023/04/05 11:19:43;;;;;;;6.28;1.80;;;;;;;20.16;32.23;99597.81;10331196;28;20034;-72
2023/04/05 11:24:57;;;;;;;11.85;2.22;;;;;;;20.34;32.11;99582.38;10332838;28;20038;-72
2023/04/05 11:30:00;;;;;;;13.13;2.65;;;;;;;20.27;31.92;99571.75;10331726;28;20042;-72
2023/04/05 11:35:05;;;;;;;9.10;2.67;;;;;;;20.03;31.44;99566.59;10330986;28;20050;-72
2023/04/05 11:40:30;;;;;;;14.60;2.30;;;;;;;19.40;32.01;99570.50;10331554;28;20121;-72
2023/04/05 11:45:31;;;;;;;8.38;2.22;;;;;;;19.37;32.66;99552.13;10330759;28;20050;-72
2023/04/05 11:50:34;;;;;;;10.80;2.83;;;;;;;19.52;33.55;99546.16;10331631;28;20046;-72
2023/04/05 11:55:35;;;;;;;15.02;3.65;;;;;;;19.65;33.81;99553.94;10330945;28;20046;-72
2023/04/05 12:00:36;;;;;;;16.52;2.78;;;;;;;19.63;33.42;99529.09;10331297;28;20042;-73
2023/04/05 12:05:48;;;;;;;8.85;2.30;;;;;;;20.14;32.50;99546.00;10340985;28;20031;-73
2023/04/05 12:10:56;;;;;;;13.52;2.92;;;;;;;20.20;32.94;99553.09;10320557;28;20129;-72
2023/04/05 12:16:02;;;;;;;9.15;2.65;;;;;;;20.01;32.68;99552.56;10347951;28;20042;-72
2023/04/05 12:21:06;;;;;;;14.93;2.58;;;;;;;20.16;32.46;99543.03;10330338;28;20117;-72
2023/04/05 12:26:07;;;;;;;17.80;3.03;;;;;;;20.05;31.93;99531.31;10366373;28;20042;-71
2023/04/05 12:31:10;;;;;;;17.40;2.95;;;;;;;19.77;32.04;99518.81;10365836;28;20046;-76
2023/04/05 12:36:14;;;;;;;17.20;3.30;;;;;;;19.99;32.39;99516.16;10353921;28;20082;-72
2023/04/05 12:41:14;;;;;;;16.40;2.78;;;;;;;19.74;31.36;99479.72;10345792;28;20129;-69
2023/04/05 12:46:16;;;;;;;21.40;3.03;;;;;;;19.39;32.08;99432.31;10364016;28;20048;-75
2023/04/05 12:51:17;;;;;;;14.30;2.60;;;;;;;19.63;31.57;99469.81;10335555;28;20050;-80
2023/04/05 12:56:18;;;;;;;15.25;2.55;;;;;;;19.67;32.66;99506.00;10336571;28;20058;-85
2023/04/05 13:01:19;;;;;;;16.48;2.97;;;;;;;19.50;32.41;99514.06;10335974;28;20074;-77
2023/04/05 13:06:20;;;;;;;13.13;2.50;;;;;;;19.35;32.09;99517.38;10336853;28;20038;-77
2023/04/05 13:11:21;;;;;;;21.83;3.42;;;;;;;19.04;32.44;99499.09;10373555;28;20084;-78
2023/04/05 13:16:22;;;;;;;13.02;2.83;;;;;;;19.10;32.02;99536.63;10335483;28;20140;-82
2023/04/05 13:21:22;;;;;;;21.58;3.30;;;;;;;19.14;32.42;99543.16;10335018;28;20069;-77
2023/04/05 13:26:23;;;;;;;23.27;3.67;;;;;;;18.66;33.76;99482.53;10335292;28;20112;-78
2023/04/05 13:31:24;;;;;;;26.00;3.22;;;;;;;18.49;33.86;99481.69;10335112;28;20525;-77
2023/04/05 13:36:25;;;;;;;16.90;3.78;;;;;;;18.82;33.90;99555.50;10335075;28;20041;-77
2023/04/05 13:41:26;;;;;;;17.63;3.20;;;;;;;18.73;34.64;99559.63;10361170;28;20476;-77
2023/04/05 13:46:27;;;;;;;18.13;3.28;;;;;;;18.50;36.16;99561.31;10375741;28;20117;-76
2023/04/05 13:51:33;;;;;;;21.02;3.75;;;;;;;18.41;35.95;99576.19;10374695;28;20042;-77
2023/04/05 13:56:34;;;;;;;15.45;3.55;;;;;;;18.20;36.42;99572.28;10342484;28;20137;-76
2023/04/05 14:01:35;;;;;;;27.10;4.30;;;;;;;18.01;37.21;99567.03;10334407;28;20125;-76
2023/04/05 14:06:36;;;;;;;24.92;4.07;;;;;;;17.55;38.90;99538.28;10334896;28;20571;-76
2023/04/05 14:11:37;;;;;;;27.02;4.68;;;;;;;17.59;40.52;99595.88;10333644;28;20046;-76
2023/04/05 14:16:38;;;;;;;27.05;4.93;;;;;;;17.23;41.66;99568.16;10334639;28;20100;-82
2023/04/05 14:21:39;;;;;;;23.52;4.90;;;;;;;17.24;41.89;99626.16;10353711;28;20042;-78
2023/04/05 14:26:40;;;;;;;30.88;5.50;;;;;;;16.23;42.93;99501.63;10339005;28;20564;-78
2023/04/05 14:31:41;;;;;;;26.70;6.10;;;;;;;16.87;43.67;99657.59;10348931;28;20120;-80
2023/04/05 14:36:42;;;;;;;22.65;5.35;;;;;;;16.20;44.30;99585.16;10335033;28;20052;-78
2023/04/05 14:41:48;;;;;;;24.33;6.18;;;;;;;15.87;44.90;99556.03;10341388;28;20041;-78
2023/04/05 14:46:50;;;;;;;19.77;5.65;;;;;;;16.40;45.64;99668.84;10330987;28;20406;-78
2023/04/05 14:51:51;;;;;;;25.38;6.05;;;;;;;15.68;46.82;99569.41;10344399;28;20053;-80
2023/04/05 14:56:52;;;;;;;21.80;5.50;;;;;;;15.67;48.27;99604.41;10335380;28;20053;-78
2023/04/05 15:01:53;;;;;;;25.85;6.07;;;;;;;15.84;48.52;99669.78;10344754;28;20125;-81
2023/04/05 15:06:54;;;;;;;24.73;6.15;;;;;;;15.48;49.73;99649.84;10345411;28;20062;-83
2023/04/05 15:11:55;;;;;;;31.50;6.68;;;;;;;15.39;50.15;99675.25;10336973;28;20112;-81
2023/04/05 15:16:58;;;;;;;30.70;7.18;;;;;;;15.10;51.13;99670.47;10346063;28;20153;-88
2023/04/05 15:21:59;;;;;;;28.75;6.07;;;;;;;14.85;51.69;99660.50;10361941;28;20040;-75
2023/04/05 15:27:02;;;;;;;48.28;7.22;;;;;;;14.84;52.50;99677.59;10346700;28;20523;-77
2023/04/05 15:32:03;;;;;;;32.33;7.87;;;;;;;14.33;53.25;99631.06;10344724;28;20046;-78
2023/04/05 15:37:04;;;;;;;32.30;8.23;;;;;;;14.38;54.46;99675.84;10344849;28;20049;-77
2023/04/05 15:42:05;;;;;;;31.23;7.78;;;;;;;14.19;54.96;99688.22;10343496;28;20057;-76
2023/04/05 15:47:06;;;;;;;35.83;8.02;;;;;;;14.01;55.58;99688.84;10342896;28;20042;-79
2023/04/05 15:52:07;;;;;;;35.38;7.00;;;;;;;13.84;56.65;99698.28;10345284;28;20046;-77
2023/04/05 15:57:08;;;;;;;30.05;7.90;;;;;;;12.81;57.45;99556.34;10343094;28;20133;-79
2023/04/05 16:02:09;;;;;;;29.92;8.15;;;;;;;13.20;57.88;99657.75;10353026;28;20128;-79
2023/04/05 16:07:10;;;;;;;35.40;7.15;;;;;;;13.22;58.81;99687.72;10340760;28;20065;-77
2023/04/05 16:12:11;;;;;;;55.15;6.97;;;;;;;12.51;59.69;99616.09;10339985;28;20136;-79
2023/04/05 16:17:12;;;;;;;53.70;8.07;;;;;;;12.35;61.26;99629.72;10349933;28;20053;-78
2023/04/05 16:22:12;;;;;;;39.60;7.28;;;;;;;12.39;62.46;99665.63;10361946;28;20050;-78
2023/04/05 16:27:13;;;;;;;31.20;6.43;;;;;;;12.43;62.68;99703.34;10345441;28;20173;-78
2023/04/05 16:32:14;;;;;;;33.40;6.43;;;;;;;12.08;64.53;99680.19;10340390;28;20086;-78
2023/04/05 16:37:15;;;;;;;33.65;7.03;;;;;;;11.94;65.59;99682.94;10351240;28;20387;-78
2023/04/05 16:42:16;;;;;;;33.42;6.43;;;;;;;11.77;66.02;99688.50;10356745;28;20132;-78
2023/04/05 16:47:17;;;;;;;34.92;6.45;;;;;;;11.19;67.24;99642.53;10342325;28;20092;-80
2023/04/05 16:52:18;;;;;;;22.67;6.25;;;;;;;11.60;68.21;99730.47;10337476;28;20136;-78
2023/04/05 16:57:19;;;;;;;24.65;6.30;;;;;;;11.48;68.51;99723.19;10353659;28;20096;-80
2023/04/05 17:02:20;;;;;;;30.25;6.47;;;;;;;11.29;69.15;99717.50;10337153;28;20066;-81
2023/04/05 17:07:20;;;;;;;33.10;6.20;;;;;;;10.94;69.80;99697.84;10353038;28;20089;-80
2023/04/05 17:12:21;;;;;;;31.60;7.43;;;;;;;11.12;70.29;99755.94;10326777;28;20533;-79
2023/04/05 17:17:22;;;;;;;22.23;6.20;;;;;;;10.40;70.43;99667.13;10321765;28;20121;-77
2023/04/05 17:22:23;;;;;;;31.80;6.75;;;;;;;10.75;71.27;99752.41;10325674;28;20069;-79
2023/04/05 17:27:24;;;;;;;29.48;6.85;;;;;;;10.13;72.69;99688.97;10326034;28;20050;-81
2023/04/05 17:32:27;;;;;;;25.20;7.63;;;;;;;10.04;73.78;99677.59;10366611;28;20096;-78
2023/04/05 17:37:28;;;;;;;23.63;6.40;;;;;;;10.43;73.53;99754.38;10375096;28;20054;-79
2023/04/05 17:42:28;;;;;;;33.22;7.70;;;;;;;9.86;74.53;99707.13;10356829;28;20487;-79
2023/04/05 17:47:29;;;;;;;25.27;6.38;;;;;;;9.80;74.91;99719.25;10334665;28;20042;-79
2023/04/05 17:52:30;;;;;;;26.58;6.55;;;;;;;9.53;76.07;99704.72;10335524;28;20038;-78
2023/04/05 17:57:31;;;;;;;30.63;5.97;;;;;;;9.82;75.93;99777.47;10340934;28;20069;-78
2023/04/05 18:02:35;;;;;;;20.70;6.22;;;;;;;9.80;76.23;99784.75;10339976;28;20046;-77
2023/04/05 18:07:37;;;;;;;28.13;6.00;;;;;;;9.69;75.90;99811.69;10335627;28;20399;-78
2023/04/05 18:12:37;;;;;;;18.88;5.10;;;;;;;9.27;75.63;99752.78;10333606;28;20046;-78
2023/04/05 18:17:39;;;;;;;19.63;5.10;;;;;;;9.38;75.53;99794.78;10333599;28;20042;-77
2023/04/05 18:22:40;;;;;;;24.25;5.50;;;;;;;9.51;75.65;99833.16;10351713;28;20080;-79
2023/04/05 18:27:41;;;;;;;23.48;6.45;;;;;;;9.29;76.07;99827.63;10342816;28;20042;-78
2023/04/05 18:32:43;;;;;;;33.50;7.55;;;;;;;9.14;76.09;99826.69;10333575;28;20042;-78
2023/04/05 18:37:43;;;;;;;38.03;8.43;;;;;;;9.07;76.54;99831.03;10333395;28;20065;-78
2023/04/05 18:42:45;;;;;;;27.10;6.22;;;;;;;8.90;76.37;99814.38;10332513;28;20061;-79
2023/04/05 18:47:45;;;;;;;29.65;6.05;;;;;;;8.24;76.77;99732.41;10333368;28;20042;-78
2023/04/05 18:52:46;;;;;;;17.55;5.60;;;;;;;8.68;76.95;99819.38;10332062;28;20073;-78
2023/04/05 18:57:47;;;;;;;18.67;5.35;;;;;;;8.88;76.93;99862.22;10332025;28;20090;-78
2023/04/05 19:02:48;;;;;;;17.92;5.43;;;;;;;8.14;77.50;99752.94;10332660;28;20477;-78
2023/04/05 19:07:48;;;;;;;18.17;4.93;;;;;;;8.37;78.21;99802.50;10332123;28;20042;-78
2023/04/05 19:12:49;;;;;;;16.75;4.70;;;;;;;8.71;77.93;99857.94;10332120;28;20045;-77
2023/04/05 19:17:50;;;;;;;17.60;4.38;;;;;;;8.55;78.32;99829.66;10334044;28;20552;-77
2023/04/05 19:22:51;;;;;;;22.45;5.43;;;;;;;8.53;77.99;99817.59;10340113;28;20601;-78
2023/04/05 19:27:51;;;;;;;13.93;5.00;;;;;;;8.83;78.09;99864.53;10342688;28;20049;-79
2023/04/05 19:32:53;;;;;;;20.27;6.38;;;;;;;8.88;78.14;99871.97;10332259;28;20050;-78
2023/04/05 19:37:54;;;;;;;20.88;6.70;;;;;;;8.84;78.82;99854.78;10349498;28;20549;-79
2023/04/05 19:42:57;;;;;;;17.52;6.43;;;;;;;8.90;78.14;99857.56;10380766;28;20042;-78
2023/04/05 19:48:00;;;;;;;25.80;5.88;;;;;;;9.03;78.00;99857.03;10380631;28;20049;-77
2023/04/05 19:53:05;;;;;;;17.05;5.68;;;;;;;9.12;77.13;99871.09;10380801;28;20132;-78
2023/04/05 19:58:08;;;;;;;21.80;5.30;;;;;;;9.07;77.51;99846.94;10380151;28;20130;-79
2023/04/05 20:03:29;;;;;;;21.92;5.45;;;;;;;9.14;79.11;99869.91;10379275;28;20082;-80
2023/04/05 20:08:33;;;;;;;17.67;5.13;;;;;;;9.12;77.96;99869.28;10379611;28;20038;-78
2023/04/05 20:13:51;;;;;;;21.92;5.45;;;;;;;9.08;79.15;99846.75;10379516;28;20117;-79
2023/04/05 20:18:55;;;;;;;25.52;5.65;;;;;;;9.11;77.29;99870.25;10379362;28;20039;-78
2023/04/05 20:23:56;;;;;;;18.95;5.97;;;;;;;9.09;77.41;99839.63;10377344;28;20133;-77
2023/04/05 20:29:02;;;;;;;21.95;6.00;;;;;;;9.28;77.58;99864.94;10379047;28;20489;-80
2023/04/05 20:34:27;;;;;;;21.73;4.78;;;;;;;9.27;79.03;99855.31;10378993;28;20049;-78
2023/04/05 20:39:29;;;;;;;15.77;4.90;;;;;;;9.24;77.24;99860.94;10378225;28;20065;-77
2023/04/05 20:44:30;;;;;;;20.77;5.05;;;;;;;9.17;77.13;99850.22;10378050;28;20516;-78
2023/04/05 20:49:31;;;;;;;19.20;5.28;;;;;;;8.84;77.47;99815.03;10378086;28;20050;-77
2023/04/05 20:54:32;;;;;;;18.27;5.32;;;;;;;8.58;77.73;99786.94;10360664;28;20610;-77
2023/04/05 20:59:32;;;;;;;27.63;6.50;;;;;;;8.79;78.05;99843.84;10336430;28;20089;-78
2023/04/05 21:04:33;;;;;;;28.17;7.47;;;;;;;8.58;78.79;99841.72;10337507;28;20054;-79
2023/04/05 21:09:34;;;;;;;31.35;9.95;;;;;;;8.50;79.19;99821.41;10336143;28;20552;-78
2023/04/05 21:14:35;;;;;;;20.10;7.10;;;;;;;8.31;78.95;99777.53;10335893;28;20049;-78
2023/04/05 21:19:35;;;;;;;23.48;6.88;;;;;;;8.80;79.29;99864.06;10336878;28;20034;-78
2023/04/05 21:24:36;;;;;;;26.55;8.80;;;;;;;8.34;79.60;99802.84;10337058;28;20049;-78
2023/04/05 21:29:37;;;;;;;26.67;8.90;;;;;;;8.31;80.06;99816.41;10335822;28;20105;-78
2023/04/05 21:34:37;;;;;;;21.77;7.63;;;;;;;8.10;80.20;99771.94;10336025;28;20042;-78
2023/04/05 21:39:38;;;;;;;26.30;7.30;;;;;;;8.48;80.82;99844.56;10335554;28;20049;-77
2023/04/05 21:44:40;;;;;;;36.50;8.10;;;;;;;8.05;80.83;99756.56;10335310;28;20125;-78
2023/04/05 21:49:40;;;;;;;27.33;6.18;;;;;;;8.66;80.83;99857.63;10345175;28;20042;-77
2023/04/05 21:54:41;;;;;;;31.88;5.78;;;;;;;8.66;81.49;99866.38;10335062;28;20516;-78
2023/04/05 21:59:42;;;;;;;20.05;5.78;;;;;;;8.73;81.35;99860.41;10335386;28;20054;-78
2023/04/05 22:04:43;;;;;;;24.27;6.05;;;;;;;8.77;81.34;99849.31;10334379;28;20114;-77
2023/04/05 22:09:43;;;;;;;22.10;5.75;;;;;;;8.77;81.54;99851.97;10333981;28;20134;-77
2023/04/05 22:14:44;;;;;;;27.50;5.80;;;;;;;8.64;81.63;99836.59;10334133;28;20565;-77
2023/04/05 22:19:45;;;;;;;17.80;5.93;;;;;;;8.60;82.13;99839.75;10334577;28;20162;-77
2023/04/05 22:24:47;;;;;;;23.83;6.15;;;;;;;8.48;82.59;99830.50;10344501;28;20136;-77
2023/04/05 22:29:48;;;;;;;21.38;5.93;;;;;;;8.64;82.65;99841.06;10348523;28;20104;-77
2023/04/05 22:34:49;;;;;;;20.25;5.45;;;;;;;8.29;82.49;99765.50;10333362;28;20177;-77
2023/04/05 22:39:50;;;;;;;19.67;4.93;;;;;;;8.59;82.83;99790.44;10332847;28;20092;-77
2023/04/05 22:44:51;;;;;;;21.23;5.15;;;;;;;8.63;82.72;99840.25;10333206;28;20518;-77
2023/04/05 22:49:51;;;;;;;13.90;4.90;;;;;;;8.43;84.19;99841.56;10329506;28;20061;-78
2023/04/05 22:54:52;;;;;;;18.90;5.40;;;;;;;8.32;84.88;99818.09;10291930;28;20050;-77
2023/04/05 22:59:53;;;;;;;23.35;6.05;;;;;;;8.37;85.31;99827.16;10292912;28;20491;-77
2023/04/05 23:04:55;;;;;;;26.92;5.57;;;;;;;8.56;85.84;99844.56;10291654;28;20089;-77
2023/04/05 23:09:56;;;;;;;20.88;4.90;;;;;;;8.64;85.17;99835.75;10292287;28;20517;-77
2023/04/05 23:14:57;;;;;;;23.75;6.18;;;;;;;8.71;85.74;99833.28;10291783;28;20077;-78
2023/04/05 23:19:57;;;;;;;22.25;5.95;;;;;;;8.62;85.82;99816.59;10292010;28;20058;-77